VESTMANNAEYJAR_(LH) current weather conditions

sailwx.info

Wind from 150 at 8 knots gusting 19

Air temperature 9.0° C
Visibility: greater than 5.4 NM
Dewpoint 6.0° C

Last reported at 2020-May-30 18:00 UTC.
Time now 2020-May-31 03:42 UTC

Location: N 63°24' W 020°17'.
View on Google Maps.

See reports from other nearby stations

  
Tides and Currents Weather Stations Pressure Air Temp Water Temp Dewpoint Dewpoint Depression Visibility Wind Speed Wind Dir Waves Ship Positions
date/time (UTC)wind fromknots sea level pressurealtimeterstation pressurevisibilityair tempwater tempwave heightnotes
2020-May-30 18:00 150 8 gusting 19 5.4 9.0
2020-May-30 17:00 150 12 gusting 24 5.4 9.0
2020-May-30 16:00 140 14 5.4 9.0
2020-May-30 15:00 150 14 5.410.0
2020-May-30 14:00 150 14 5.410.0
2020-May-30 13:00 150 14 5.410.0
2020-May-30 12:00 150 17 5.4 9.0
2020-May-30 11:12 150 14 5.4 9.0
2020-May-30 10:00 150 14 5.4 9.0
2020-May-30 09:00 150 14 5.4 8.0
2020-May-29 18:00 120 19 gusting 31 0.3 9.0 Rain. Fog.
2020-May-29 17:00 130 13 gusting 34 0.4 9.0 Rain. Fog.
2020-May-29 16:00 130 17 gusting 35 0.3 9.0 Rain. Fog.
2020-May-29 15:10 130 19 gusting 34 0.5 9.0 Rain. Fog.
2020-May-29 14:00 120 20 gusting 32 0.2 9.0 Rain. Fog.
2020-May-29 13:00 150 18 gusting 35 2.2 9.0 Drizzle. Mist.
2020-May-29 12:00 150 13 gusting 31 0.4 9.0 Drizzle. Fog.
2020-May-29 11:00 140 11 gusting 27 0.3 9.0 Drizzle. Fog.
2020-May-29 10:00 130 14 gusting 25 0.3 9.0 Drizzle. Fog.
2020-May-29 09:00 150 18 gusting 38 2.7 9.0 Mist.
2020-May-29 08:00 130 18 gusting 34 0.2 9.0 Rain. Fog.
2020-May-29 07:00 130 20 gusting 36 0.1 9.0 Rain. Fog.
2020-May-29 06:32 120 20 gusting 32 0.1 9.0 Rain. Fog.